Flight Track Log - Related Links

Times and Time Zones

All times are in EDT time to prevent confusion due to time zone crossing. See the QXE2614 flight status page for this flight to view local times or setup timezone preferences in your user account.

Time Position Orientation Groundspeed Altitude Reporting Facility
EDT Latitude Longitude Course Direction KTS MPH feet Rate Location/Type
Thu 09:43:00 PM 38.0615 -122.3667 North  Level FlightAware Approximate
Thu 09:44:00 PM 38.1515 -122.3667 North  Level FlightAware Approximate
Thu 09:45:00 PM 38.2413 -122.3623 North  Level FlightAware Approximate
Thu 09:46:00 PM 38.3310 -122.3529 North  Level FlightAware Approximate
Thu 09:47:00 PM 38.4206 -122.3435 North  Level FlightAware Approximate
Thu 09:48:00 PM 38.5103 -122.3340 North  Level FlightAware Approximate
Thu 09:49:00 PM 38.6001 -122.3278 North  Level FlightAware Approximate
Thu 09:50:00 PM 38.6899 -122.3203 North  Level FlightAware Approximate
Thu 09:51:00 PM 38.7793 -122.3102 10° North  Level FlightAware Approximate
Thu 09:52:00 PM 38.8680 -122.2905 10° North  Level FlightAware Approximate
Thu 09:53:00 PM 38.9571 -122.2742 North  Level FlightAware Approximate
Thu 09:54:00 PM 39.0463 -122.2600 North  Level FlightAware Approximate
Thu 09:55:00 PM 39.1356 -122.2457 North  Level FlightAware Approximate
Thu 09:56:00 PM 39.2249 -122.2314 North  Level FlightAware Approximate
Thu 09:57:00 PM 39.2982 -122.2196 North  Level FlightAware Approximate
Thu 09:58:00 PM 39.3718 -122.2178 359° North  Level FlightAware Approximate
Thu 09:59:00 PM 39.4612 -122.2303 354° North  Level FlightAware Approximate
Thu 10:00:00 PM 39.5505 -122.2429 354° North  Level FlightAware Approximate
Thu 10:01:00 PM 39.6398 -122.2554 354° North  Level FlightAware Approximate
Thu 10:02:00 PM 39.7291 -122.2680 354° North  Level FlightAware Approximate
Thu 10:03:00 PM 39.8184 -122.2806 354° North  Level FlightAware Approximate
Thu 10:04:00 PM 39.9077 -122.2933 354° North  Level FlightAware Approximate
Thu 10:05:00 PM 39.9970 -122.3060 354° North  Level FlightAware Approximate
Thu 10:06:00 PM 40.0863 -122.3187 354° North  Level FlightAware Approximate
Thu 10:07:00 PM 40.1756 -122.3315 354° North  Level FlightAware Approximate
Thu 10:08:00 PM 40.2649 -122.3443 354° North  Level FlightAware Approximate
Thu 10:09:00 PM 40.3542 -122.3571 354° North  Level FlightAware Approximate
Thu 10:10:00 PM 40.4435 -122.3700 354° North  Level FlightAware Approximate
Thu 10:11:00 PM 40.5328 -122.3829 354° North  Level FlightAware Approximate
Thu 10:12:00 PM 40.6221 -122.3958 354° North  Level FlightAware Approximate
Thu 10:13:00 PM 40.7114 -122.4087 354° North  Level FlightAware Approximate
Thu 10:14:00 PM 40.8007 -122.4217 354° North  Level FlightAware Approximate
Thu 10:15:00 PM 40.8900 -122.4348 354° North  Level FlightAware Approximate
Thu 10:16:00 PM 40.9793 -122.4478 354° North  Level FlightAware Approximate
Thu 10:17:00 PM 41.0686 -122.4609 354° North  Level FlightAware Approximate
Thu 10:18:00 PM 41.1579 -122.4741 354° North  Level FlightAware Approximate
Thu 10:19:00 PM 41.2472 -122.4873 354° North  Level FlightAware Approximate
Thu 10:20:00 PM 41.3399 -122.5006 356° North  Level FlightAware Approximate
Thu 10:21:00 PM 41.4295 -122.5083 356° North  Level FlightAware Approximate
Thu 10:22:00 PM 41.5192 -122.5160 356° North  Level FlightAware Approximate
Thu 10:23:00 PM 41.6088 -122.5238 356° North  Level FlightAware Approximate
Thu 10:24:00 PM 41.6985 -122.5315 356° North  Level FlightAware Approximate
Thu 10:25:00 PM 41.7881 -122.5393 356° North  Level FlightAware Approximate
Thu 10:26:00 PM 41.8797 -122.5473 356° North  Level FlightAware Approximate
Thu 10:27:00 PM 41.9712 -122.5553 356° North  Level FlightAware Approximate
Thu 10:28:00 PM 42.0628 -122.5634 356° North  Level FlightAware Approximate
Thu 10:29:00 PM 42.1543 -122.5714 356° North  Level FlightAware Approximate
Thu 10:30:00 PM 42.2459 -122.5795 356° North  Level FlightAware Approximate
Thu 10:31:00 PM 42.3374 -122.5876 356° North  Level FlightAware Approximate
Thu 10:32:00 PM 42.4290 -122.5957 356° North  Level FlightAware Approximate
Thu 10:33:00 PM 42.5205 -122.6039 356° North  Level FlightAware Approximate
Thu 10:34:00 PM 42.6121 -122.6121 356° North  Level FlightAware Approximate
Thu 10:35:00 PM 42.7036 -122.6203 356° North  Level FlightAware Approximate
Thu 10:36:00 PM 42.7952 -122.6285 356° North  Level FlightAware Approximate
Thu 10:37:00 PM 42.8867 -122.6367 356° North  Level FlightAware Approximate
Thu 10:38:00 PM 42.9783 -122.6450 356° North  Level FlightAware Approximate
Thu 10:39:00 PM 43.0699 -122.6528 357° North  Level FlightAware Approximate
Thu 10:40:00 PM 43.1615 -122.6598 357° North  Level FlightAware Approximate
Thu 10:41:00 PM 43.2531 -122.6668 357° North  Level FlightAware Approximate
Thu 10:42:00 PM 43.3447 -122.6739 357° North  Level FlightAware Approximate
Thu 10:43:00 PM 43.4363 -122.6810 357° North  Level FlightAware Approximate
Thu 10:44:00 PM 43.5278 -122.6894 356° North  Level FlightAware Approximate
Thu 10:45:00 PM 43.6193 -122.6985 356° North  Level FlightAware Approximate
Thu 10:46:00 PM 43.7108 -122.7076 356° North  Level FlightAware Approximate
Thu 10:47:00 PM 43.8023 -122.7167 356° North  Level FlightAware Approximate
Thu 10:48:00 PM 43.8938 -122.7259 356° North  Level FlightAware Approximate
Thu 10:49:00 PM 43.9854 -122.7351 356° North  Level FlightAware Approximate
Thu 10:50:00 PM 44.0769 -122.7443 356° North  Level FlightAware Approximate
Thu 10:51:00 PM 44.1683 -122.7454 North  Level FlightAware Approximate
Thu 10:52:00 PM 44.2596 -122.7332 North  Level FlightAware Approximate
Thu 10:53:00 PM 44.3510 -122.7210 North  Level FlightAware Approximate
Thu 10:54:00 PM 44.4426 -122.7167 North  Level FlightAware Approximate
Thu 10:55:00 PM 44.5340 -122.7099 North  Level FlightAware Approximate
Thu 10:56:00 PM 44.6252 -122.7000 North  Level FlightAware Approximate
Thu 10:57:00 PM 44.7168 -122.6952 North  Level FlightAware Approximate
Thu 10:58:00 PM 44.8080 -122.6813 10° North  Level FlightAware Approximate
Thu 10:59:00 PM 44.8988 -122.6667 North  Level FlightAware Approximate
Thu 11:00:00 PM 44.9906 -122.6658 North  Level FlightAware Approximate
Thu 11:01:00 PM 45.0819 -122.6544 North  Level FlightAware Approximate
Thu 11:02:00 PM 45.1733 -122.6419 North  Level FlightAware Approximate
Thu 11:03:00 PM 45.2639 -122.6435 347° North  Level FlightAware Approximate
Thu 11:04:00 PM 45.3495 -122.6897 337° Northwest  Level FlightAware Approximate
Thu 11:05:00 PM 45.4345 -122.7387 338° Northwest  Level FlightAware Approximate
Thu 11:06:00 PM 45.5201 -122.7856 335° Northwest  Level FlightAware Approximate
Thu 11:07:00 PM 45.5848 -122.8697 306° West  Level FlightAware Approximate
Thu 11:08:00 PM 45.6122 -122.8531 115° Southeast  Level FlightAware Approximate
Thu 11:09:00 PM 45.6000 -122.7258 90° East  Level FlightAware Approximate
Thu 11:10:00 PM 45.5852 -122.5966 101° East  Level FlightAware Approximate
Thu 11:11:00 PM 45.5833 -122.5833 101° East  Level FlightAware Approximate

Login

Don't have an account? Register now (free) for customized features, flight alerts, and more!